sensor_id;sensor_type;location;lat;lon;timestamp;P1;durP1;ratioP1;P2;durP2;ratioP2
46417;SDS011;69884;64.758;20.962;2023-05-29T00:01:04;0.10;;;0.10;;
46417;SDS011;69884;64.758;20.962;2023-05-29T00:03:32;0.20;;;0.10;;
46417;SDS011;69884;64.758;20.962;2023-05-29T00:05:58;0.10;;;0.10;;
46417;SDS011;69884;64.758;20.962;2023-05-29T00:08:23;0.20;;;0.10;;
46417;SDS011;69884;64.758;20.962;2023-05-29T00:10:48;0.10;;;0.10;;
46417;SDS011;69884;64.758;20.962;2023-05-29T00:13:14;0.10;;;0.10;;
46417;SDS011;69884;64.758;20.962;2023-05-29T00:15:39;0.80;;;0.10;;
46417;SDS011;69884;64.758;20.962;2023-05-29T00:18:05;0.73;;;0.20;;
46417;SDS011;69884;64.758;20.962;2023-05-29T00:20:30;0.10;;;0.10;;
46417;SDS011;69884;64.758;20.962;2023-05-29T00:22:59;0.38;;;0.20;;
46417;SDS011;69884;64.758;20.962;2023-05-29T00:25:24;0.43;;;0.10;;
46417;SDS011;69884;64.758;20.962;2023-05-29T00:27:49;0.40;;;0.10;;
46417;SDS011;69884;64.758;20.962;2023-05-29T00:30:15;0.37;;;0.10;;
46417;SDS011;69884;64.758;20.962;2023-05-29T00:32:40;1.03;;;0.20;;
46417;SDS011;69884;64.758;20.962;2023-05-29T00:35:06;1.80;;;0.17;;
46417;SDS011;69884;64.758;20.962;2023-05-29T00:37:31;0.17;;;0.10;;
46417;SDS011;69884;64.758;20.962;2023-05-29T00:39:57;0.75;;;0.20;;
46417;SDS011;69884;64.758;20.962;2023-05-29T00:42:22;0.80;;;0.10;;
46417;SDS011;69884;64.758;20.962;2023-05-29T00:44:47;0.20;;;0.10;;
46417;SDS011;69884;64.758;20.962;2023-05-29T00:47:13;0.60;;;0.10;;
46417;SDS011;69884;64.758;20.962;2023-05-29T00:49:38;0.27;;;0.00;;
46417;SDS011;69884;64.758;20.962;2023-05-29T00:52:04;0.10;;;0.10;;
46417;SDS011;69884;64.758;20.962;2023-05-29T00:54:31;0.93;;;0.20;;
46417;SDS011;69884;64.758;20.962;2023-05-29T00:56:57;0.67;;;0.10;;
46417;SDS011;69884;64.758;20.962;2023-05-29T00:59:22;0.80;;;0.10;;
46417;SDS011;69884;64.758;20.962;2023-05-29T01:01:51;0.10;;;0.10;;
46417;SDS011;69884;64.758;20.962;2023-05-29T01:04:16;0.60;;;0.10;;
46417;SDS011;69884;64.758;20.962;2023-05-29T01:06:42;0.10;;;0.10;;
46417;SDS011;69884;64.758;20.962;2023-05-29T01:09:08;0.57;;;0.10;;
46417;SDS011;69884;64.758;20.962;2023-05-29T01:11:39;0.40;;;0.10;;
46417;SDS011;69884;64.758;20.962;2023-05-29T01:14:13;0.80;;;0.10;;
46417;SDS011;69884;64.758;20.962;2023-05-29T01:16:43;0.63;;;0.20;;
46417;SDS011;69884;64.758;20.962;2023-05-29T01:19:19;0.60;;;0.10;;
46417;SDS011;69884;64.758;20.962;2023-05-29T01:26:54;0.30;;;0.13;;
46417;SDS011;69884;64.758;20.962;2023-05-29T01:29:22;0.10;;;0.10;;
46417;SDS011;69884;64.758;20.962;2023-05-29T01:31:48;0.28;;;0.20;;
46417;SDS011;69884;64.758;20.962;2023-05-29T01:34:14;0.22;;;0.20;;
46417;SDS011;69884;64.758;20.962;2023-05-29T01:36:40;0.20;;;0.10;;
46417;SDS011;69884;64.758;20.962;2023-05-29T01:39:05;0.40;;;0.10;;
46417;SDS011;69884;64.758;20.962;2023-05-29T01:41:30;0.60;;;0.20;;
46417;SDS011;69884;64.758;20.962;2023-05-29T01:43:57;0.20;;;0.10;;
46417;SDS011;69884;64.758;20.962;2023-05-29T01:46:22;1.30;;;0.20;;
46417;SDS011;69884;64.758;20.962;2023-05-29T01:48:50;0.30;;;0.17;;
46417;SDS011;69884;64.758;20.962;2023-05-29T01:51:15;0.70;;;0.20;;
46417;SDS011;69884;64.758;20.962;2023-05-29T01:53:41;0.38;;;0.20;;
46417;SDS011;69884;64.758;20.962;2023-05-29T01:56:07;0.20;;;0.10;;
46417;SDS011;69884;64.758;20.962;2023-05-29T01:58:33;0.60;;;0.17;;
46417;SDS011;69884;64.758;20.962;2023-05-29T02:00:59;1.30;;;0.22;;
46417;SDS011;69884;64.758;20.962;2023-05-29T02:03:25;0.70;;;0.20;;
46417;SDS011;69884;64.758;20.962;2023-05-29T02:05:53;0.35;;;0.13;;
46417;SDS011;69884;64.758;20.962;2023-05-29T02:08:19;0.80;;;0.20;;
46417;SDS011;69884;64.758;20.962;2023-05-29T02:10:44;0.40;;;0.20;;
46417;SDS011;69884;64.758;20.962;2023-05-29T02:13:09;0.97;;;0.20;;
46417;SDS011;69884;64.758;20.962;2023-05-29T02:15:35;0.50;;;0.20;;
46417;SDS011;69884;64.758;20.962;2023-05-29T02:18:00;0.50;;;0.20;;
46417;SDS011;69884;64.758;20.962;2023-05-29T02:20:26;1.30;;;0.17;;
46417;SDS011;69884;64.758;20.962;2023-05-29T02:22:52;0.90;;;0.10;;
46417;SDS011;69884;64.758;20.962;2023-05-29T02:25:17;0.40;;;0.20;;
46417;SDS011;69884;64.758;20.962;2023-05-29T02:27:42;1.03;;;0.20;;
46417;SDS011;69884;64.758;20.962;2023-05-29T02:30:08;0.65;;;0.20;;
46417;SDS011;69884;64.758;20.962;2023-05-29T02:32:33;0.37;;;0.20;;
46417;SDS011;69884;64.758;20.962;2023-05-29T02:34:58;1.10;;;0.30;;
46417;SDS011;69884;64.758;20.962;2023-05-29T02:37:24;1.77;;;0.50;;
46417;SDS011;69884;64.758;20.962;2023-05-29T02:39:51;2.33;;;0.40;;
46417;SDS011;69884;64.758;20.962;2023-05-29T02:42:16;1.97;;;0.17;;
46417;SDS011;69884;64.758;20.962;2023-05-29T02:44:41;0.20;;;0.20;;
46417;SDS011;69884;64.758;20.962;2023-05-29T02:47:07;1.20;;;0.20;;
46417;SDS011;69884;64.758;20.962;2023-05-29T02:49:32;0.30;;;0.20;;
46417;SDS011;69884;64.758;20.962;2023-05-29T02:51:57;0.70;;;0.20;;
46417;SDS011;69884;64.758;20.962;2023-05-29T02:54:23;1.90;;;0.30;;
46417;SDS011;69884;64.758;20.962;2023-05-29T02:56:48;0.77;;;0.27;;
46417;SDS011;69884;64.758;20.962;2023-05-29T02:59:13;0.90;;;0.20;;
46417;SDS011;69884;64.758;20.962;2023-05-29T03:01:39;0.97;;;0.10;;
46417;SDS011;69884;64.758;20.962;2023-05-29T03:04:04;2.13;;;0.20;;
46417;SDS011;69884;64.758;20.962;2023-05-29T03:06:29;0.10;;;0.10;;
46417;SDS011;69884;64.758;20.962;2023-05-29T03:08:55;2.10;;;0.30;;
46417;SDS011;69884;64.758;20.962;2023-05-29T03:11:20;0.50;;;0.20;;
46417;SDS011;69884;64.758;20.962;2023-05-29T03:13:48;1.50;;;0.20;;
46417;SDS011;69884;64.758;20.962;2023-05-29T03:16:14;0.80;;;0.30;;
46417;SDS011;69884;64.758;20.962;2023-05-29T03:18:39;1.20;;;0.20;;
46417;SDS011;69884;64.758;20.962;2023-05-29T03:21:04;1.30;;;0.20;;
46417;SDS011;69884;64.758;20.962;2023-05-29T03:23:31;0.47;;;0.20;;
46417;SDS011;69884;64.758;20.962;2023-05-29T03:25:56;1.23;;;0.20;;
46417;SDS011;69884;64.758;20.962;2023-05-29T03:28:22;0.50;;;0.28;;
46417;SDS011;69884;64.758;20.962;2023-05-29T03:30:47;4.40;;;0.40;;
46417;SDS011;69884;64.758;20.962;2023-05-29T03:33:12;1.20;;;0.20;;
46417;SDS011;69884;64.758;20.962;2023-05-29T03:35:38;1.45;;;0.20;;
46417;SDS011;69884;64.758;20.962;2023-05-29T03:38:03;0.67;;;0.30;;
46417;SDS011;69884;64.758;20.962;2023-05-29T03:40:28;0.20;;;0.10;;
46417;SDS011;69884;64.758;20.962;2023-05-29T03:42:54;1.20;;;0.17;;
46417;SDS011;69884;64.758;20.962;2023-05-29T03:45:20;2.50;;;0.20;;
46417;SDS011;69884;64.758;20.962;2023-05-29T03:47:45;0.90;;;0.20;;
46417;SDS011;69884;64.758;20.962;2023-05-29T03:50:10;0.60;;;0.20;;
46417;SDS011;69884;64.758;20.962;2023-05-29T03:52:39;0.32;;;0.10;;
46417;SDS011;69884;64.758;20.962;2023-05-29T03:55:08;0.37;;;0.10;;
46417;SDS011;69884;64.758;20.962;2023-05-29T03:57:33;1.40;;;0.30;;
46417;SDS011;69884;64.758;20.962;2023-05-29T03:59:58;0.85;;;0.20;;
46417;SDS011;69884;64.758;20.962;2023-05-29T04:02:24;2.50;;;0.40;;
46417;SDS011;69884;64.758;20.962;2023-05-29T04:04:49;2.37;;;0.20;;
46417;SDS011;69884;64.758;20.962;2023-05-29T04:07:15;1.75;;;0.28;;
46417;SDS011;69884;64.758;20.962;2023-05-29T04:09:42;0.63;;;0.10;;
46417;SDS011;69884;64.758;20.962;2023-05-29T04:12:08;2.50;;;0.30;;
46417;SDS011;69884;64.758;20.962;2023-05-29T04:14:34;0.47;;;0.20;;
46417;SDS011;69884;64.758;20.962;2023-05-29T04:16:59;1.67;;;0.30;;
46417;SDS011;69884;64.758;20.962;2023-05-29T04:19:24;0.80;;;0.20;;
46417;SDS011;69884;64.758;20.962;2023-05-29T04:21:50;0.30;;;0.10;;
46417;SDS011;69884;64.758;20.962;2023-05-29T04:24:15;0.30;;;0.10;;
46417;SDS011;69884;64.758;20.962;2023-05-29T04:26:40;1.30;;;0.20;;
46417;SDS011;69884;64.758;20.962;2023-05-29T04:29:06;0.10;;;0.10;;
46417;SDS011;69884;64.758;20.962;2023-05-29T04:31:32;1.60;;;0.10;;
46417;SDS011;69884;64.758;20.962;2023-05-29T04:33:57;1.23;;;0.23;;
46417;SDS011;69884;64.758;20.962;2023-05-29T04:36:25;0.40;;;0.20;;
46417;SDS011;69884;64.758;20.962;2023-05-29T04:38:51;1.80;;;0.20;;
46417;SDS011;69884;64.758;20.962;2023-05-29T04:41:16;0.55;;;0.15;;
46417;SDS011;69884;64.758;20.962;2023-05-29T04:43:42;0.73;;;0.10;;
46417;SDS011;69884;64.758;20.962;2023-05-29T04:46:07;0.40;;;0.10;;
46417;SDS011;69884;64.758;20.962;2023-05-29T04:48:37;1.77;;;0.20;;
46417;SDS011;69884;64.758;20.962;2023-05-29T04:51:05;0.40;;;0.20;;
46417;SDS011;69884;64.758;20.962;2023-05-29T04:53:30;0.60;;;0.10;;
46417;SDS011;69884;64.758;20.962;2023-05-29T04:55:56;2.07;;;0.40;;
46417;SDS011;69884;64.758;20.962;2023-05-29T04:58:21;1.73;;;0.30;;
46417;SDS011;69884;64.758;20.962;2023-05-29T05:00:46;1.77;;;0.20;;
46417;SDS011;69884;64.758;20.962;2023-05-29T05:03:15;0.60;;;0.20;;
46417;SDS011;69884;64.758;20.962;2023-05-29T05:05:41;1.42;;;0.20;;
46417;SDS011;69884;64.758;20.962;2023-05-29T05:08:08;1.50;;;0.10;;
46417;SDS011;69884;64.758;20.962;2023-05-29T05:10:34;0.63;;;0.10;;
46417;SDS011;69884;64.758;20.962;2023-05-29T05:12:59;1.23;;;0.10;;
46417;SDS011;69884;64.758;20.962;2023-05-29T05:15:35;1.03;;;0.20;;
46417;SDS011;69884;64.758;20.962;2023-05-29T05:18:00;5.95;;;0.30;;
46417;SDS011;69884;64.758;20.962;2023-05-29T05:20:25;0.33;;;0.10;;
46417;SDS011;69884;64.758;20.962;2023-05-29T05:23:01;0.40;;;0.10;;
46417;SDS011;69884;64.758;20.962;2023-05-29T05:25:27;0.70;;;0.10;;
46417;SDS011;69884;64.758;20.962;2023-05-29T05:27:52;0.50;;;0.20;;
46417;SDS011;69884;64.758;20.962;2023-05-29T05:30:17;0.87;;;0.10;;
46417;SDS011;69884;64.758;20.962;2023-05-29T05:32:43;0.73;;;0.20;;
46417;SDS011;69884;64.758;20.962;2023-05-29T05:35:08;0.90;;;0.20;;
46417;SDS011;69884;64.758;20.962;2023-05-29T05:37:36;1.45;;;0.22;;
46417;SDS011;69884;64.758;20.962;2023-05-29T05:40:01;0.30;;;0.20;;
46417;SDS011;69884;64.758;20.962;2023-05-29T05:42:26;1.40;;;0.40;;
46417;SDS011;69884;64.758;20.962;2023-05-29T05:44:52;1.77;;;0.20;;
46417;SDS011;69884;64.758;20.962;2023-05-29T05:47:17;1.30;;;0.30;;
46417;SDS011;69884;64.758;20.962;2023-05-29T05:49:43;1.63;;;0.20;;
46417;SDS011;69884;64.758;20.962;2023-05-29T05:52:08;1.90;;;0.20;;
46417;SDS011;69884;64.758;20.962;2023-05-29T05:54:34;1.90;;;0.30;;
46417;SDS011;69884;64.758;20.962;2023-05-29T05:56:59;1.60;;;0.20;;
46417;SDS011;69884;64.758;20.962;2023-05-29T05:59:25;0.95;;;0.30;;
46417;SDS011;69884;64.758;20.962;2023-05-29T06:01:50;1.53;;;0.20;;
46417;SDS011;69884;64.758;20.962;2023-05-29T06:04:16;2.88;;;0.40;;
46417;SDS011;69884;64.758;20.962;2023-05-29T06:06:42;1.02;;;0.30;;
46417;SDS011;69884;64.758;20.962;2023-05-29T06:09:07;3.07;;;0.30;;
46417;SDS011;69884;64.758;20.962;2023-05-29T06:11:34;2.40;;;0.40;;
46417;SDS011;69884;64.758;20.962;2023-05-29T06:13:59;3.07;;;0.50;;
46417;SDS011;69884;64.758;20.962;2023-05-29T06:16:24;5.47;;;0.47;;
46417;SDS011;69884;64.758;20.962;2023-05-29T06:18:49;2.30;;;0.30;;
46417;SDS011;69884;64.758;20.962;2023-05-29T06:21:15;1.13;;;0.30;;
46417;SDS011;69884;64.758;20.962;2023-05-29T06:23:41;0.57;;;0.30;;
46417;SDS011;69884;64.758;20.962;2023-05-29T06:26:06;1.83;;;0.50;;
46417;SDS011;69884;64.758;20.962;2023-05-29T06:28:32;3.87;;;0.53;;
46417;SDS011;69884;64.758;20.962;2023-05-29T06:30:57;2.47;;;0.40;;
46417;SDS011;69884;64.758;20.962;2023-05-29T06:33:22;4.80;;;0.50;;
46417;SDS011;69884;64.758;20.962;2023-05-29T06:35:49;2.20;;;0.40;;
46417;SDS011;69884;64.758;20.962;2023-05-29T06:38:14;0.83;;;0.30;;
46417;SDS011;69884;64.758;20.962;2023-05-29T06:40:42;1.73;;;0.50;;
46417;SDS011;69884;64.758;20.962;2023-05-29T06:43:08;2.90;;;0.50;;
46417;SDS011;69884;64.758;20.962;2023-05-29T06:45:36;2.50;;;0.40;;
46417;SDS011;69884;64.758;20.962;2023-05-29T06:48:01;2.23;;;0.53;;
46417;SDS011;69884;64.758;20.962;2023-05-29T06:50:27;2.40;;;0.40;;
46417;SDS011;69884;64.758;20.962;2023-05-29T06:52:52;1.20;;;0.37;;
46417;SDS011;69884;64.758;20.962;2023-05-29T06:55:17;1.30;;;0.50;;
46417;SDS011;69884;64.758;20.962;2023-05-29T06:57:43;4.07;;;0.60;;
46417;SDS011;69884;64.758;20.962;2023-05-29T07:00:08;2.93;;;0.40;;
46417;SDS011;69884;64.758;20.962;2023-05-29T07:02:35;2.15;;;0.50;;
46417;SDS011;69884;64.758;20.962;2023-05-29T07:05:01;2.60;;;0.40;;
46417;SDS011;69884;64.758;20.962;2023-05-29T07:07:26;2.20;;;0.80;;
46417;SDS011;69884;64.758;20.962;2023-05-29T07:09:51;2.50;;;0.53;;
46417;SDS011;69884;64.758;20.962;2023-05-29T07:12:17;4.75;;;0.90;;
46417;SDS011;69884;64.758;20.962;2023-05-29T07:14:42;2.80;;;0.65;;
46417;SDS011;69884;64.758;20.962;2023-05-29T07:17:07;2.30;;;0.67;;
46417;SDS011;69884;64.758;20.962;2023-05-29T07:19:33;2.03;;;0.60;;
46417;SDS011;69884;64.758;20.962;2023-05-29T07:21:59;2.30;;;0.73;;
46417;SDS011;69884;64.758;20.962;2023-05-29T07:24:24;1.27;;;0.70;;
46417;SDS011;69884;64.758;20.962;2023-05-29T07:26:49;1.43;;;0.60;;
46417;SDS011;69884;64.758;20.962;2023-05-29T07:29:15;1.40;;;0.60;;
46417;SDS011;69884;64.758;20.962;2023-05-29T07:31:42;1.77;;;0.60;;
46417;SDS011;69884;64.758;20.962;2023-05-29T07:34:08;0.77;;;0.50;;
46417;SDS011;69884;64.758;20.962;2023-05-29T07:36:33;1.97;;;0.60;;
46417;SDS011;69884;64.758;20.962;2023-05-29T07:38:58;2.53;;;0.70;;
46417;SDS011;69884;64.758;20.962;2023-05-29T07:41:23;1.53;;;0.67;;
46417;SDS011;69884;64.758;20.962;2023-05-29T07:43:49;2.10;;;0.70;;
46417;SDS011;69884;64.758;20.962;2023-05-29T07:46:17;2.13;;;0.68;;
46417;SDS011;69884;64.758;20.962;2023-05-29T07:48:42;1.17;;;0.50;;
46417;SDS011;69884;64.758;20.962;2023-05-29T07:51:07;2.53;;;0.60;;
46417;SDS011;69884;64.758;20.962;2023-05-29T07:53:35;1.60;;;0.70;;
46417;SDS011;69884;64.758;20.962;2023-05-29T07:56:00;3.90;;;0.60;;
46417;SDS011;69884;64.758;20.962;2023-05-29T07:58:26;1.33;;;0.50;;
46417;SDS011;69884;64.758;20.962;2023-05-29T08:00:52;2.30;;;0.70;;
46417;SDS011;69884;64.758;20.962;2023-05-29T08:03:17;1.63;;;0.50;;
46417;SDS011;69884;64.758;20.962;2023-05-29T08:05:42;3.30;;;0.80;;
46417;SDS011;69884;64.758;20.962;2023-05-29T08:08:08;1.90;;;0.70;;
46417;SDS011;69884;64.758;20.962;2023-05-29T08:10:33;1.30;;;0.80;;
46417;SDS011;69884;64.758;20.962;2023-05-29T08:12:58;1.87;;;0.80;;
46417;SDS011;69884;64.758;20.962;2023-05-29T08:15:24;2.50;;;0.60;;
46417;SDS011;69884;64.758;20.962;2023-05-29T08:17:51;2.10;;;0.60;;
46417;SDS011;69884;64.758;20.962;2023-05-29T08:20:16;1.90;;;0.70;;
46417;SDS011;69884;64.758;20.962;2023-05-29T08:22:42;2.90;;;0.70;;
46417;SDS011;69884;64.758;20.962;2023-05-29T08:25:07;1.33;;;0.50;;
46417;SDS011;69884;64.758;20.962;2023-05-29T08:27:33;1.17;;;0.50;;
46417;SDS011;69884;64.758;20.962;2023-05-29T08:29:58;2.90;;;0.80;;
46417;SDS011;69884;64.758;20.962;2023-05-29T08:32:24;3.80;;;0.60;;
46417;SDS011;69884;64.758;20.962;2023-05-29T08:34:49;1.50;;;0.60;;
46417;SDS011;69884;64.758;20.962;2023-05-29T08:37:15;1.48;;;0.60;;
46417;SDS011;69884;64.758;20.962;2023-05-29T08:39:41;1.50;;;0.70;;
46417;SDS011;69884;64.758;20.962;2023-05-29T08:42:13;2.70;;;0.90;;
46417;SDS011;69884;64.758;20.962;2023-05-29T08:44:40;1.92;;;0.60;;
46417;SDS011;69884;64.758;20.962;2023-05-29T08:47:06;1.10;;;0.70;;
46417;SDS011;69884;64.758;20.962;2023-05-29T08:49:37;3.40;;;0.80;;
46417;SDS011;69884;64.758;20.962;2023-05-29T08:52:06;1.48;;;0.70;;
46417;SDS011;69884;64.758;20.962;2023-05-29T08:54:33;3.30;;;0.82;;
46417;SDS011;69884;64.758;20.962;2023-05-29T08:56:59;4.30;;;0.60;;
46417;SDS011;69884;64.758;20.962;2023-05-29T08:59:26;6.32;;;0.98;;
46417;SDS011;69884;64.758;20.962;2023-05-29T09:01:52;3.47;;;0.50;;
46417;SDS011;69884;64.758;20.962;2023-05-29T09:04:18;2.10;;;0.80;;
46417;SDS011;69884;64.758;20.962;2023-05-29T09:06:44;3.07;;;0.70;;
46417;SDS011;69884;64.758;20.962;2023-05-29T09:09:09;3.23;;;0.70;;
46417;SDS011;69884;64.758;20.962;2023-05-29T09:11:35;4.30;;;0.70;;
46417;SDS011;69884;64.758;20.962;2023-05-29T09:14:01;1.57;;;0.70;;
46417;SDS011;69884;64.758;20.962;2023-05-29T09:16:27;3.47;;;0.90;;
46417;SDS011;69884;64.758;20.962;2023-05-29T09:18:56;2.17;;;0.70;;
46417;SDS011;69884;64.758;20.962;2023-05-29T09:21:28;3.40;;;0.90;;
46417;SDS011;69884;64.758;20.962;2023-05-29T09:24:02;1.92;;;0.70;;
46417;SDS011;69884;64.758;20.962;2023-05-29T09:26:28;3.08;;;0.85;;
46417;SDS011;69884;64.758;20.962;2023-05-29T09:28:53;2.73;;;0.70;;
46417;SDS011;69884;64.758;20.962;2023-05-29T09:31:19;3.50;;;0.82;;
46417;SDS011;69884;64.758;20.962;2023-05-29T09:33:48;1.90;;;0.77;;
46417;SDS011;69884;64.758;20.962;2023-05-29T09:36:19;4.28;;;1.05;;
46417;SDS011;69884;64.758;20.962;2023-05-29T09:38:45;3.50;;;0.97;;
46417;SDS011;69884;64.758;20.962;2023-05-29T09:41:11;4.07;;;1.00;;
46417;SDS011;69884;64.758;20.962;2023-05-29T09:43:36;2.10;;;0.90;;
46417;SDS011;69884;64.758;20.962;2023-05-29T09:46:03;1.90;;;0.80;;
46417;SDS011;69884;64.758;20.962;2023-05-29T09:48:31;6.55;;;1.20;;
46417;SDS011;69884;64.758;20.962;2023-05-29T09:50:57;4.30;;;0.87;;
46417;SDS011;69884;64.758;20.962;2023-05-29T09:53:23;4.43;;;0.80;;
46417;SDS011;69884;64.758;20.962;2023-05-29T09:55:50;4.85;;;0.90;;
46417;SDS011;69884;64.758;20.962;2023-05-29T09:58:16;2.50;;;0.73;;
46417;SDS011;69884;64.758;20.962;2023-05-29T10:00:42;1.70;;;0.85;;
46417;SDS011;69884;64.758;20.962;2023-05-29T10:03:08;2.60;;;0.85;;
46417;SDS011;69884;64.758;20.962;2023-05-29T10:05:33;3.05;;;0.93;;
46417;SDS011;69884;64.758;20.962;2023-05-29T10:07:59;3.87;;;0.90;;
46417;SDS011;69884;64.758;20.962;2023-05-29T10:10:27;2.72;;;0.85;;
46417;SDS011;69884;64.758;20.962;2023-05-29T10:12:52;4.13;;;1.10;;
46417;SDS011;69884;64.758;20.962;2023-05-29T10:15:18;4.18;;;1.02;;
46417;SDS011;69884;64.758;20.962;2023-05-29T10:17:52;5.22;;;0.95;;
46417;SDS011;69884;64.758;20.962;2023-05-29T10:20:21;2.60;;;0.80;;
46417;SDS011;69884;64.758;20.962;2023-05-29T10:22:47;4.32;;;0.90;;
46417;SDS011;69884;64.758;20.962;2023-05-29T10:25:13;1.85;;;0.90;;
46417;SDS011;69884;64.758;20.962;2023-05-29T10:27:38;2.80;;;1.00;;
46417;SDS011;69884;64.758;20.962;2023-05-29T10:30:06;3.85;;;0.90;;
46417;SDS011;69884;64.758;20.962;2023-05-29T10:32:50;4.73;;;0.90;;
46417;SDS011;69884;64.758;20.962;2023-05-29T10:35:23;3.15;;;1.13;;
46417;SDS011;69884;64.758;20.962;2023-05-29T10:37:52;3.30;;;1.00;;
46417;SDS011;69884;64.758;20.962;2023-05-29T10:40:23;5.30;;;1.00;;
46417;SDS011;69884;64.758;20.962;2023-05-29T10:42:49;3.47;;;0.90;;
46417;SDS011;69884;64.758;20.962;2023-05-29T10:46:00;5.53;;;1.20;;
46417;SDS011;69884;64.758;20.962;2023-05-29T10:50:35;10.30;;;1.77;;
46417;SDS011;69884;64.758;20.962;2023-05-29T10:53:00;4.38;;;1.00;;
46417;SDS011;69884;64.758;20.962;2023-05-29T10:55:33;2.97;;;0.93;;
46417;SDS011;69884;64.758;20.962;2023-05-29T10:57:58;3.30;;;1.00;;
46417;SDS011;69884;64.758;20.962;2023-05-29T11:00:24;3.97;;;1.20;;
46417;SDS011;69884;64.758;20.962;2023-05-29T11:02:51;4.80;;;1.00;;
46417;SDS011;69884;64.758;20.962;2023-05-29T11:05:23;3.40;;;0.90;;
46417;SDS011;69884;64.758;20.962;2023-05-29T11:13:05;10.40;;;1.80;;
46417;SDS011;69884;64.758;20.962;2023-05-29T11:15:32;5.63;;;1.20;;
46417;SDS011;69884;64.758;20.962;2023-05-29T11:18:05;3.78;;;1.30;;
46417;SDS011;69884;64.758;20.962;2023-05-29T11:20:37;4.25;;;1.35;;
46417;SDS011;69884;64.758;20.962;2023-05-29T11:23:06;9.13;;;2.50;;
46417;SDS011;69884;64.758;20.962;2023-05-29T11:25:37;5.00;;;1.33;;
46417;SDS011;69884;64.758;20.962;2023-05-29T11:28:03;6.18;;;1.63;;
46417;SDS011;69884;64.758;20.962;2023-05-29T11:30:33;11.98;;;2.80;;
46417;SDS011;69884;64.758;20.962;2023-05-29T11:33:05;9.00;;;1.63;;
46417;SDS011;69884;64.758;20.962;2023-05-29T11:35:33;6.68;;;1.65;;
46417;SDS011;69884;64.758;20.962;2023-05-29T11:37:59;4.07;;;1.30;;
46417;SDS011;69884;64.758;20.962;2023-05-29T11:40:25;5.65;;;1.48;;
46417;SDS011;69884;64.758;20.962;2023-05-29T11:42:51;5.00;;;1.27;;
46417;SDS011;69884;64.758;20.962;2023-05-29T11:45:17;5.87;;;1.40;;
46417;SDS011;69884;64.758;20.962;2023-05-29T11:47:54;6.78;;;1.60;;
46417;SDS011;69884;64.758;20.962;2023-05-29T11:50:20;3.42;;;1.27;;
46417;SDS011;69884;64.758;20.962;2023-05-29T11:52:46;5.18;;;1.30;;
46417;SDS011;69884;64.758;20.962;2023-05-29T11:55:11;5.30;;;1.30;;
46417;SDS011;69884;64.758;20.962;2023-05-29T11:57:37;5.55;;;1.35;;
46417;SDS011;69884;64.758;20.962;2023-05-29T12:00:02;4.73;;;1.47;;
46417;SDS011;69884;64.758;20.962;2023-05-29T12:02:32;6.33;;;1.80;;
46417;SDS011;69884;64.758;20.962;2023-05-29T12:05:01;4.35;;;1.30;;
46417;SDS011;69884;64.758;20.962;2023-05-29T12:07:26;7.70;;;1.40;;
46417;SDS011;69884;64.758;20.962;2023-05-29T12:09:52;4.13;;;1.00;;
46417;SDS011;69884;64.758;20.962;2023-05-29T12:12:22;3.30;;;1.23;;
46417;SDS011;69884;64.758;20.962;2023-05-29T12:14:49;4.07;;;1.30;;
46417;SDS011;69884;64.758;20.962;2023-05-29T12:17:15;3.50;;;1.13;;
46417;SDS011;69884;64.758;20.962;2023-05-29T12:19:40;2.30;;;1.00;;
46417;SDS011;69884;64.758;20.962;2023-05-29T12:22:06;2.57;;;0.90;;
46417;SDS011;69884;64.758;20.962;2023-05-29T12:24:31;3.30;;;1.20;;
46417;SDS011;69884;64.758;20.962;2023-05-29T12:26:56;4.80;;;1.20;;
46417;SDS011;69884;64.758;20.962;2023-05-29T12:29:29;4.13;;;1.13;;
46417;SDS011;69884;64.758;20.962;2023-05-29T12:31:58;2.22;;;1.02;;
46417;SDS011;69884;64.758;20.962;2023-05-29T12:34:23;3.10;;;1.00;;
46417;SDS011;69884;64.758;20.962;2023-05-29T12:36:49;3.20;;;0.97;;
46417;SDS011;69884;64.758;20.962;2023-05-29T12:39:14;4.73;;;1.20;;
46417;SDS011;69884;64.758;20.962;2023-05-29T12:41:39;3.37;;;1.00;;
46417;SDS011;69884;64.758;20.962;2023-05-29T12:44:05;3.07;;;1.00;;
46417;SDS011;69884;64.758;20.962;2023-05-29T12:46:42;4.20;;;1.02;;
46417;SDS011;69884;64.758;20.962;2023-05-29T12:49:20;3.58;;;1.08;;
46417;SDS011;69884;64.758;20.962;2023-05-29T12:51:46;3.90;;;1.00;;
46417;SDS011;69884;64.758;20.962;2023-05-29T12:54:11;4.67;;;0.80;;
46417;SDS011;69884;64.758;20.962;2023-05-29T12:56:37;3.15;;;1.00;;
46417;SDS011;69884;64.758;20.962;2023-05-29T12:59:05;3.85;;;1.00;;
46417;SDS011;69884;64.758;20.962;2023-05-29T13:01:30;3.50;;;1.00;;
46417;SDS011;69884;64.758;20.962;2023-05-29T13:03:56;2.83;;;0.80;;
46417;SDS011;69884;64.758;20.962;2023-05-29T13:06:21;5.60;;;0.90;;
46417;SDS011;69884;64.758;20.962;2023-05-29T13:08:46;4.00;;;1.00;;
46417;SDS011;69884;64.758;20.962;2023-05-29T13:11:11;4.83;;;0.97;;
46417;SDS011;69884;64.758;20.962;2023-05-29T13:13:37;3.20;;;0.90;;
46417;SDS011;69884;64.758;20.962;2023-05-29T13:16:02;2.93;;;0.90;;
46417;SDS011;69884;64.758;20.962;2023-05-29T13:18:28;6.87;;;1.00;;
46417;SDS011;69884;64.758;20.962;2023-05-29T13:20:53;5.93;;;0.87;;
46417;SDS011;69884;64.758;20.962;2023-05-29T13:23:18;4.90;;;0.70;;
46417;SDS011;69884;64.758;20.962;2023-05-29T13:25:43;1.60;;;0.50;;
46417;SDS011;69884;64.758;20.962;2023-05-29T13:28:10;4.97;;;0.60;;
46417;SDS011;69884;64.758;20.962;2023-05-29T13:30:36;5.30;;;0.67;;
46417;SDS011;69884;64.758;20.962;2023-05-29T13:33:01;1.03;;;0.50;;
46417;SDS011;69884;64.758;20.962;2023-05-29T13:35:26;0.77;;;0.30;;
46417;SDS011;69884;64.758;20.962;2023-05-29T13:37:51;2.17;;;0.40;;
46417;SDS011;69884;64.758;20.962;2023-05-29T13:40:17;1.60;;;0.47;;
46417;SDS011;69884;64.758;20.962;2023-05-29T13:42:42;1.63;;;0.47;;
46417;SDS011;69884;64.758;20.962;2023-05-29T13:45:07;0.77;;;0.50;;
46417;SDS011;69884;64.758;20.962;2023-05-29T13:47:33;2.75;;;0.40;;
46417;SDS011;69884;64.758;20.962;2023-05-29T13:49:59;4.20;;;0.80;;
46417;SDS011;69884;64.758;20.962;2023-05-29T13:52:25;4.90;;;0.70;;
46417;SDS011;69884;64.758;20.962;2023-05-29T13:54:50;1.50;;;0.60;;
46417;SDS011;69884;64.758;20.962;2023-05-29T13:57:15;5.20;;;0.77;;
46417;SDS011;69884;64.758;20.962;2023-05-29T13:59:41;2.60;;;0.60;;
46417;SDS011;69884;64.758;20.962;2023-05-29T14:02:06;4.73;;;0.70;;
46417;SDS011;69884;64.758;20.962;2023-05-29T14:04:33;4.55;;;0.57;;
46417;SDS011;69884;64.758;20.962;2023-05-29T14:06:58;9.00;;;1.00;;
46417;SDS011;69884;64.758;20.962;2023-05-29T14:09:23;3.27;;;0.80;;
46417;SDS011;69884;64.758;20.962;2023-05-29T14:11:56;4.18;;;0.70;;
46417;SDS011;69884;64.758;20.962;2023-05-29T14:14:21;3.25;;;0.70;;
46417;SDS011;69884;64.758;20.962;2023-05-29T14:16:47;4.35;;;0.60;;
46417;SDS011;69884;64.758;20.962;2023-05-29T14:19:13;6.27;;;0.50;;
46417;SDS011;69884;64.758;20.962;2023-05-29T14:21:38;2.72;;;0.50;;
46417;SDS011;69884;64.758;20.962;2023-05-29T14:24:03;9.87;;;1.30;;
46417;SDS011;69884;64.758;20.962;2023-05-29T14:26:29;3.90;;;0.53;;
46417;SDS011;69884;64.758;20.962;2023-05-29T14:28:54;2.40;;;0.60;;
46417;SDS011;69884;64.758;20.962;2023-05-29T14:31:19;4.97;;;0.50;;
46417;SDS011;69884;64.758;20.962;2023-05-29T14:33:45;5.17;;;0.70;;
46417;SDS011;69884;64.758;20.962;2023-05-29T14:36:10;2.40;;;0.60;;
46417;SDS011;69884;64.758;20.962;2023-05-29T14:38:35;1.70;;;0.50;;
46417;SDS011;69884;64.758;20.962;2023-05-29T14:41:04;3.10;;;0.57;;